Time;durP1;ratioP1;P1;durP2;ratioP2;P2;SDS_P1;SDS_P2;PMS_P1;PMS_P2;Temp;Humidity;BMP_temperature;BMP_pressure;BME280_temperature;BME280_humidity;BME280_pressure;Samples;Min_cycle;Max_cycle;Signal;HPM_P1;HPM_P2
2021/10/16 00:01:20;;;;;;;;;;;20.60;57.30;;;;;;5073106;28;19967;-55
2021/10/16 00:03:47;;;;;;;;;;;20.60;57.30;;;;;;5072275;28;19924;-52
2021/10/16 00:06:14;;;;;;;;;;;20.60;57.30;;;;;;5073358;28;20353;-51
2021/10/16 00:08:42;;;;;;;;;;;20.60;57.30;;;;;;5073334;28;19974;-57
2021/10/16 00:11:09;;;;;;;;;;;20.60;57.30;;;;;;5071822;28;19975;-55
2021/10/16 00:13:36;;;;;;;;;;;20.60;57.30;;;;;;5073063;28;20011;-54
2021/10/16 00:16:04;;;;;;;;;;;20.60;57.30;;;;;;5071976;28;19931;-54
2021/10/16 00:18:34;;;;;;;;;;;20.60;57.30;;;;;;5073078;28;19935;-56
2021/10/16 00:21:02;;;;;;;;;;;20.60;57.30;;;;;;5072921;28;19946;-54
2021/10/16 00:23:29;;;;;;;;;;;20.60;57.30;;;;;;5073019;28;19924;-54
2021/10/16 00:25:56;;;;;;;;;;;20.60;57.30;;;;;;5072710;28;19964;-56
2021/10/16 00:28:23;;;;;;;;;;;20.60;57.30;;;;;;5072669;28;20011;-53
2021/10/16 00:30:50;;;;;;;;;;;20.60;57.30;;;;;;5072932;28;19932;-54
2021/10/16 00:33:17;;;;;;;;;;;20.60;57.30;;;;;;5071804;28;19924;-54
2021/10/16 00:35:45;;;;;;;;;;;20.60;57.50;;;;;;5072953;28;19986;-56
2021/10/16 00:38:12;;;;;;;;;;;20.60;57.30;;;;;;5071340;28;19986;-57
2021/10/16 00:40:39;;;;;;;;;;;20.60;57.20;;;;;;5072814;28;19924;-56
2021/10/16 00:43:06;;;;;;;;;;;20.60;57.20;;;;;;5072900;28;19924;-54
2021/10/16 00:45:33;;;;;;;;;;;20.60;57.30;;;;;;5072933;28;19982;-53
2021/10/16 00:48:00;;;;;;;;;;;20.60;57.30;;;;;;5071954;28;20422;-55
2021/10/16 00:50:27;;;;;;;;;;;20.60;57.30;;;;;;5071163;28;19970;-51
2021/10/16 00:52:54;;;;;;;;;;;20.60;57.30;;;;;;5071385;28;20357;-54
2021/10/16 00:55:22;;;;;;;;;;;20.60;57.30;;;;;;5072059;28;19924;-56
2021/10/16 00:57:49;;;;;;;;;;;20.60;57.30;;;;;;5070973;28;20012;-53
2021/10/16 01:00:16;;;;;;;;;;;20.60;57.30;;;;;;5072213;28;19925;-53
2021/10/16 01:02:43;;;;;;;;;;;20.60;57.30;;;;;;5071259;28;20269;-57
2021/10/16 01:05:11;;;;;;;;;;;20.60;57.30;;;;;;5071137;28;19929;-54
2021/10/16 01:07:39;;;;;;;;;;;20.60;57.20;;;;;;5072265;28;20019;-55
2021/10/16 01:10:07;;;;;;;;;;;20.60;57.20;;;;;;5072466;28;19960;-54
2021/10/16 01:12:34;;;;;;;;;;;20.60;57.20;;;;;;5071062;28;19963;-54
2021/10/16 01:15:04;;;;;;;;;;;20.60;57.20;;;;;;5072493;28;19925;-53
2021/10/16 01:17:31;;;;;;;;;;;20.60;57.20;;;;;;5071085;28;19929;-55
2021/10/16 01:20:10;;;;;;;;;;;20.60;57.30;;;;;;5070835;28;19924;-53
2021/10/16 01:22:38;;;;;;;;;;;20.60;57.30;;;;;;5071892;28;20360;-53
2021/10/16 01:25:09;;;;;;;;;;;20.60;57.30;;;;;;5071892;28;19925;-54
2021/10/16 01:27:37;;;;;;;;;;;20.60;57.30;;;;;;5069971;28;20080;-56
2021/10/16 01:30:05;;;;;;;;;;;20.60;57.20;;;;;;5071798;28;20452;-55
2021/10/16 01:32:33;;;;;;;;;;;20.60;57.30;;;;;;5072123;28;19935;-55
2021/10/16 01:35:01;;;;;;;;;;;20.60;57.30;;;;;;5070910;28;19947;-57
2021/10/16 01:37:28;;;;;;;;;;;20.60;57.20;;;;;;5070633;28;19936;-54
2021/10/16 01:39:55;;;;;;;;;;;20.60;57.30;;;;;;5054425;28;19924;-57
2021/10/16 01:42:22;;;;;;;;;;;20.60;57.30;;;;;;5087036;28;19960;-56
2021/10/16 01:44:49;;;;;;;;;;;20.60;57.20;;;;;;5035502;28;19924;-57
2021/10/16 01:47:16;;;;;;;;;;;20.60;57.20;;;;;;5070757;28;19959;-57
2021/10/16 01:49:43;;;;;;;;;;;20.60;57.20;;;;;;5071573;28;19925;-56
2021/10/16 01:52:09;;;;;;;;;;;20.60;57.20;;;;;;5071789;28;20004;-55
2021/10/16 01:54:36;;;;;;;;;;;20.60;57.20;;;;;;5070296;28;19964;-55
2021/10/16 01:57:03;;;;;;;;;;;20.60;57.20;;;;;;5071365;28;19925;-56
2021/10/16 01:59:30;;;;;;;;;;;20.60;57.20;;;;;;5070732;28;20015;-55
2021/10/16 02:02:05;;;;;;;;;;;20.60;57.20;;;;;;5071319;28;20396;-55
2021/10/16 02:04:33;;;;;;;;;;;20.60;57.20;;;;;;5071522;28;19929;-54
2021/10/16 02:07:00;;;;;;;;;;;20.60;57.80;;;;;;5070346;28;19931;-57
2021/10/16 02:09:26;;;;;;;;;;;20.60;57.20;;;;;;5070865;28;19963;-54
2021/10/16 02:11:53;;;;;;;;;;;20.60;57.20;;;;;;5071825;28;20046;-56
2021/10/16 02:14:20;;;;;;;;;;;20.60;57.20;;;;;;5071519;28;20386;-54
2021/10/16 02:16:47;;;;;;;;;;;20.60;57.20;;;;;;5069980;28;19925;-55
2021/10/16 02:19:19;;;;;;;;;;;20.60;57.20;;;;;;5054564;28;19993;-57
2021/10/16 02:21:46;;;;;;;;;;;20.60;57.20;;;;;;5053490;28;19928;-53
2021/10/16 02:24:13;;;;;;;;;;;20.60;57.20;;;;;;5070008;28;19967;-54
2021/10/16 02:26:40;;;;;;;;;;;20.60;57.20;;;;;;5070524;28;19970;-58
2021/10/16 02:29:07;;;;;;;;;;;20.60;57.20;;;;;;5071534;28;19956;-54
2021/10/16 02:31:33;;;;;;;;;;;20.60;57.20;;;;;;5071537;28;19925;-52
2021/10/16 02:34:00;;;;;;;;;;;20.60;57.20;;;;;;5071487;28;19928;-55
2021/10/16 02:36:28;;;;;;;;;;;20.60;57.20;;;;;;5071318;28;20388;-57
2021/10/16 02:38:55;;;;;;;;;;;20.60;57.20;;;;;;5072439;28;20036;-55
2021/10/16 02:41:22;;;;;;;;;;;20.60;57.20;;;;;;5075140;28;19952;-56
2021/10/16 02:43:48;;;;;;;;;;;20.60;57.20;;;;;;5073878;28;19936;-53
2021/10/16 02:46:15;;;;;;;;;;;20.60;57.20;;;;;;5074634;28;19999;-57
2021/10/16 02:48:42;;;;;;;;;;;20.60;57.20;;;;;;5074644;28;19924;-56
2021/10/16 02:51:09;;;;;;;;;;;20.60;57.20;;;;;;5073757;28;19951;-56
2021/10/16 02:53:36;;;;;;;;;;;20.60;57.20;;;;;;5073458;28;19978;-53
2021/10/16 02:56:03;;;;;;;;;;;20.60;57.20;;;;;;5073691;28;20022;-53
2021/10/16 02:58:30;;;;;;;;;;;20.60;57.20;;;;;;5075988;28;20023;-53
2021/10/16 03:00:57;;;;;;;;;;;20.60;57.20;;;;;;5074725;28;19978;-53
2021/10/16 03:03:24;;;;;;;;;;;20.60;57.30;;;;;;5090286;28;19925;-55
2021/10/16 03:05:51;;;;;;;;;;;20.60;57.20;;;;;;5074646;28;20433;-53
2021/10/16 03:08:18;;;;;;;;;;;20.60;57.20;;;;;;5074372;28;19924;-54
2021/10/16 03:10:45;;;;;;;;;;;20.60;57.20;;;;;;5073433;28;20051;-55
2021/10/16 03:13:12;;;;;;;;;;;20.60;57.20;;;;;;5074155;28;20444;-57
2021/10/16 03:15:39;;;;;;;;;;;20.60;57.20;;;;;;5074315;28;19955;-53
2021/10/16 03:18:06;;;;;;;;;;;20.60;57.20;;;;;;5073954;28;19924;-55
2021/10/16 03:20:33;;;;;;;;;;;20.60;57.30;;;;;;5073339;28;20319;-53
2021/10/16 03:23:00;;;;;;;;;;;20.60;57.20;;;;;;5074172;28;20490;-54
2021/10/16 03:25:27;;;;;;;;;;;20.60;57.20;;;;;;5072858;28;19928;-53
2021/10/16 03:27:54;;;;;;;;;;;20.60;57.20;;;;;;5074009;28;20419;-55
2021/10/16 03:30:21;;;;;;;;;;;20.60;57.20;;;;;;5074132;28;19928;-55
2021/10/16 03:32:48;;;;;;;;;;;20.60;57.20;;;;;;5040560;28;20319;-55
2021/10/16 03:35:15;;;;;;;;;;;20.60;57.20;;;;;;5073254;28;19925;-54
2021/10/16 03:37:42;;;;;;;;;;;20.60;57.20;;;;;;5073094;28;20281;-57
2021/10/16 03:40:09;;;;;;;;;;;20.60;57.20;;;;;;5073663;28;20024;-58
2021/10/16 03:42:36;;;;;;;;;;;20.60;57.20;;;;;;5088032;28;20011;-53
2021/10/16 03:45:03;;;;;;;;;;;20.60;57.20;;;;;;5072802;28;19924;-56
2021/10/16 03:47:30;;;;;;;;;;;20.60;57.20;;;;;;5073385;28;19964;-55
2021/10/16 03:49:57;;;;;;;;;;;20.60;57.20;;;;;;5073187;28;19932;-53
2021/10/16 03:52:24;;;;;;;;;;;20.60;57.20;;;;;;5073319;28;19963;-55
2021/10/16 03:54:51;;;;;;;;;;;20.60;57.20;;;;;;5073515;28;19924;-53
2021/10/16 03:57:18;;;;;;;;;;;20.60;57.20;;;;;;5073774;28;19925;-51
2021/10/16 03:59:44;;;;;;;;;;;20.60;57.20;;;;;;5073776;28;19929;-54
2021/10/16 04:02:11;;;;;;;;;;;20.60;57.20;;;;;;5073317;28;19928;-53
2021/10/16 04:04:39;;;;;;;;;;;20.60;57.20;;;;;;5072266;28;19932;-55
2021/10/16 04:07:05;;;;;;;;;;;20.60;57.20;;;;;;5073585;28;20042;-53
2021/10/16 04:09:32;;;;;;;;;;;20.60;57.20;;;;;;5073124;28;19967;-51
2021/10/16 04:11:59;;;;;;;;;;;20.60;57.20;;;;;;5073146;28;19925;-53
2021/10/16 04:14:26;;;;;;;;;;;20.60;57.20;;;;;;5072259;28;20327;-55
2021/10/16 04:16:53;;;;;;;;;;;20.60;57.20;;;;;;5071691;28;20435;-54
2021/10/16 04:19:20;;;;;;;;;;;20.60;57.80;;;;;;5072262;28;20347;-52
2021/10/16 04:21:47;;;;;;;;;;;20.60;57.20;;;;;;5072385;28;19925;-52
2021/10/16 04:24:14;;;;;;;;;;;20.60;57.30;;;;;;5072814;28;20011;-54
2021/10/16 04:26:41;;;;;;;;;;;20.60;57.20;;;;;;5071227;28;20321;-49
2021/10/16 04:29:08;;;;;;;;;;;20.60;57.20;;;;;;5071919;28;19982;-55
2021/10/16 04:31:35;;;;;;;;;;;20.60;57.20;;;;;;5071560;28;19931;-56
2021/10/16 04:34:04;;;;;;;;;;;20.60;57.20;;;;;;5072923;28;19982;-52
2021/10/16 04:36:31;;;;;;;;;;;20.60;57.20;;;;;;5072895;28;20338;-53
2021/10/16 04:38:59;;;;;;;;;;;20.60;57.20;;;;;;5071456;28;20350;-54
2021/10/16 04:41:26;;;;;;;;;;;20.60;57.20;;;;;;5072461;28;20007;-54
2021/10/16 04:43:53;;;;;;;;;;;20.60;57.20;;;;;;5072305;28;20399;-53
2021/10/16 04:46:22;;;;;;;;;;;20.60;57.20;;;;;;5071393;28;20023;-51
2021/10/16 04:48:49;;;;;;;;;;;20.60;57.30;;;;;;5071494;28;19978;-55
2021/10/16 04:51:16;;;;;;;;;;;20.60;57.20;;;;;;5054724;28;20011;-55
2021/10/16 04:53:43;;;;;;;;;;;20.60;57.20;;;;;;5072481;28;20007;-53
2021/10/16 04:56:10;;;;;;;;;;;20.60;57.20;;;;;;5072202;28;20380;-52
2021/10/16 04:58:37;;;;;;;;;;;20.60;57.20;;;;;;5072293;28;20055;-52
2021/10/16 05:01:04;;;;;;;;;;;20.60;57.20;;;;;;5072462;28;20379;-52
2021/10/16 05:03:31;;;;;;;;;;;20.60;57.20;;;;;;5070887;28;19981;-55
2021/10/16 05:05:58;;;;;;;;;;;20.60;57.20;;;;;;5067375;28;19978;-53
2021/10/16 05:08:27;;;;;;;;;;;20.60;57.20;;;;;;5070763;28;20012;-52
2021/10/16 05:10:54;;;;;;;;;;;20.60;57.20;;;;;;5070802;28;19933;-56
2021/10/16 05:13:21;;;;;;;;;;;20.60;57.20;;;;;;5072331;28;19991;-52
2021/10/16 05:15:48;;;;;;;;;;;20.60;57.20;;;;;;5072360;28;19924;-52
2021/10/16 05:18:15;;;;;;;;;;;20.60;57.30;;;;;;5071092;28;19967;-56
2021/10/16 05:20:42;;;;;;;;;;;20.60;57.20;;;;;;5071340;28;19928;-57
2021/10/16 05:23:08;;;;;;;;;;;20.60;57.20;;;;;;5070613;28;19924;-55
2021/10/16 05:25:36;;;;;;;;;;;20.60;57.20;;;;;;5070860;28;19925;-54
2021/10/16 05:28:03;;;;;;;;;;;20.60;57.20;;;;;;5070822;28;19931;-54
2021/10/16 05:30:30;;;;;;;;;;;20.60;57.30;;;;;;5072015;28;20016;-53
2021/10/16 05:32:58;;;;;;;;;;;20.60;57.30;;;;;;5070595;28;20297;-54
2021/10/16 05:35:25;;;;;;;;;;;20.60;57.30;;;;;;5070906;28;20002;-53
2021/10/16 05:37:52;;;;;;;;;;;20.60;57.20;;;;;;5071669;28;19924;-55
2021/10/16 05:40:19;;;;;;;;;;;20.60;57.20;;;;;;5070454;28;20377;-56
2021/10/16 05:42:45;;;;;;;;;;;20.60;57.20;;;;;;5071802;28;19925;-56
2021/10/16 05:45:12;;;;;;;;;;;20.60;57.20;;;;;;5071886;28;19950;-56
2021/10/16 05:47:41;;;;;;;;;;;20.60;57.30;;;;;;5072041;28;19931;-56
2021/10/16 05:50:09;;;;;;;;;;;20.60;57.20;;;;;;5071861;28;20326;-53
2021/10/16 05:52:36;;;;;;;;;;;20.50;57.20;;;;;;5071857;28;19925;-55
2021/10/16 05:55:04;;;;;;;;;;;20.60;57.30;;;;;;5071271;28;20012;-59
2021/10/16 05:57:31;;;;;;;;;;;20.60;57.20;;;;;;5071522;28;20387;-55
2021/10/16 05:59:58;;;;;;;;;;;20.60;57.20;;;;;;5070276;28;20368;-53
2021/10/16 06:02:25;;;;;;;;;;;20.60;57.20;;;;;;5070693;28;20004;-55
2021/10/16 06:04:52;;;;;;;;;;;20.60;57.20;;;;;;5071677;28;19975;-54
2021/10/16 06:07:19;;;;;;;;;;;20.60;57.20;;;;;;5070578;28;20001;-55
2021/10/16 06:09:46;;;;;;;;;;;20.60;57.20;;;;;;5070485;28;19947;-57
2021/10/16 06:12:13;;;;;;;;;;;20.60;57.20;;;;;;5071426;28;19925;-54
2021/10/16 06:14:40;;;;;;;;;;;20.60;57.20;;;;;;5074088;28;20027;-56
2021/10/16 06:17:07;;;;;;;;;;;20.60;57.20;;;;;;5075045;28;19924;-54
2021/10/16 06:19:34;;;;;;;;;;;20.60;57.20;;;;;;5075373;28;19978;-53
2021/10/16 06:22:01;;;;;;;;;;;20.60;57.10;;;;;;5074947;28;19971;-57
2021/10/16 06:24:28;;;;;;;;;;;20.60;57.20;;;;;;5057411;28;19925;-54
2021/10/16 06:26:55;;;;;;;;;;;20.60;57.20;;;;;;5075335;28;20003;-56
2021/10/16 06:29:22;;;;;;;;;;;20.60;57.10;;;;;;5075167;28;19978;-56
2021/10/16 06:31:49;;;;;;;;;;;20.60;57.10;;;;;;5075179;28;20011;-53
2021/10/16 06:34:16;;;;;;;;;;;20.60;57.10;;;;;;5074894;28;19972;-57
2021/10/16 06:36:43;;;;;;;;;;;20.60;57.10;;;;;;5074988;28;20368;-56
2021/10/16 06:39:10;;;;;;;;;;;20.60;57.10;;;;;;5075200;28;20481;-55
2021/10/16 06:41:37;;;;;;;;;;;20.60;57.00;;;;;;5074185;28;19924;-56
2021/10/16 06:44:04;;;;;;;;;;;20.60;57.00;;;;;;5073599;28;20376;-54
2021/10/16 06:46:31;;;;;;;;;;;20.60;57.00;;;;;;5074946;28;19928;-52
2021/10/16 06:48:58;;;;;;;;;;;20.60;57.00;;;;;;5074995;28;19947;-56
2021/10/16 06:51:25;;;;;;;;;;;20.60;57.00;;;;;;5074484;28;19924;-54
2021/10/16 06:53:52;;;;;;;;;;;20.60;57.00;;;;;;5073273;28;19924;-55
2021/10/16 06:56:19;;;;;;;;;;;20.60;57.00;;;;;;5073490;28;20296;-54
2021/10/16 06:58:48;;;;;;;;;;;20.70;57.00;;;;;;5073606;28;20352;-54
2021/10/16 07:01:15;;;;;;;;;;;20.70;57.00;;;;;;5073424;28;19925;-52
2021/10/16 07:03:42;;;;;;;;;;;20.70;57.00;;;;;;5073406;28;19924;-57
2021/10/16 07:06:10;;;;;;;;;;;20.70;57.00;;;;;;5074877;28;19964;-55
2021/10/16 07:08:37;;;;;;;;;;;20.70;57.00;;;;;;5074946;28;19925;-57
2021/10/16 07:11:09;;;;;;;;;;;20.70;57.00;;;;;;5072820;28;19931;-53
2021/10/16 07:13:35;;;;;;;;;;;20.70;57.00;;;;;;5074289;28;19924;-55
2021/10/16 07:16:03;;;;;;;;;;;20.70;56.90;;;;;;5074177;28;20018;-55
2021/10/16 07:18:30;;;;;;;;;;;20.70;57.00;;;;;;5072768;28;20380;-56
2021/10/16 07:20:57;;;;;;;;;;;20.70;56.90;;;;;;5072977;28;19967;-55
2021/10/16 07:23:45;;;;;;;;;;;20.70;56.90;;;;;;5074210;28;19928;-55
2021/10/16 07:26:12;;;;;;;;;;;20.70;56.90;;;;;;5072706;28;19934;-54
2021/10/16 07:28:39;;;;;;;;;;;20.70;56.80;;;;;;5073487;28;19990;-54
2021/10/16 07:31:06;;;;;;;;;;;20.70;56.80;;;;;;5073916;28;19924;-54
2021/10/16 07:33:33;;;;;;;;;;;20.70;56.80;;;;;;5074055;28;20008;-54
2021/10/16 07:36:00;;;;;;;;;;;20.70;56.80;;;;;;5055483;28;19936;-55
2021/10/16 07:38:27;;;;;;;;;;;20.70;56.80;;;;;;5074279;28;19928;-53
2021/10/16 07:40:54;;;;;;;;;;;20.70;56.80;;;;;;5054979;28;19924;-54
2021/10/16 07:43:21;;;;;;;;;;;20.70;56.80;;;;;;5087755;28;19925;-52
2021/10/16 07:45:48;;;;;;;;;;;20.70;56.70;;;;;;5073729;28;20007;-54
2021/10/16 07:48:15;;;;;;;;;;;20.80;56.80;;;;;;5073483;28;19925;-54
2021/10/16 07:50:42;;;;;;;;;;;20.80;56.80;;;;;;5072858;28;19929;-53
2021/10/16 07:53:09;;;;;;;;;;;20.80;56.80;;;;;;5073815;28;19931;-54
2021/10/16 07:55:36;;;;;;;;;;;20.80;56.80;;;;;;5073297;28;19990;-55
2021/10/16 07:58:03;;;;;;;;;;;20.80;56.70;;;;;;5071882;28;19975;-55
2021/10/16 08:00:30;;;;;;;;;;;20.80;56.70;;;;;;5071834;28;20398;-53
2021/10/16 08:02:57;;;;;;;;;;;20.80;56.70;;;;;;5088918;28;19974;-53
2021/10/16 08:05:25;;;;;;;;;;;20.80;56.70;;;;;;5055225;28;20345;-55
2021/10/16 08:07:52;;;;;;;;;;;20.80;56.70;;;;;;5073784;28;19971;-54
2021/10/16 08:10:21;;;;;;;;;;;20.80;56.70;;;;;;5073002;28;19931;-52
2021/10/16 08:12:48;;;;;;;;;;;20.80;56.60;;;;;;5073154;28;19924;-55
2021/10/16 08:15:15;;;;;;;;;;;20.80;56.60;;;;;;5072854;28;19956;-54
2021/10/16 08:17:42;;;;;;;;;;;20.80;56.50;;;;;;5072285;28;19932;-56
2021/10/16 08:20:09;;;;;;;;;;;20.80;56.50;;;;;;5072954;28;20350;-56
2021/10/16 08:22:42;;;;;;;;;;;20.80;56.50;;;;;;5071824;28;20027;-55
2021/10/16 08:25:09;;;;;;;;;;;20.80;56.50;;;;;;5071595;28;19932;-54
2021/10/16 08:27:37;;;;;;;;;;;20.80;56.50;;;;;;5072895;28;19925;-54
2021/10/16 08:30:05;;;;;;;;;;;20.80;56.50;;;;;;5072654;28;19928;-56
2021/10/16 08:32:33;;;;;;;;;;;20.80;56.50;;;;;;5072022;28;19933;-55
2021/10/16 08:35:00;;;;;;;;;;;20.80;56.50;;;;;;5073217;28;20354;-55
2021/10/16 08:37:27;;;;;;;;;;;20.90;56.50;;;;;;5072314;28;20018;-57
2021/10/16 08:39:53;;;;;;;;;;;20.90;56.50;;;;;;5072543;28;20016;-54
2021/10/16 08:42:20;;;;;;;;;;;20.90;56.50;;;;;;5072652;28;20379;-50
2021/10/16 08:44:47;;;;;;;;;;;20.90;56.40;;;;;;5072692;28;20011;-53
2021/10/16 08:47:16;;;;;;;;;;;20.90;56.40;;;;;;5071244;28;19924;-53
2021/10/16 08:49:44;;;;;;;;;;;20.90;56.30;;;;;;5071240;28;19928;-55
2021/10/16 08:52:11;;;;;;;;;;;21.00;56.40;;;;;;5071471;28;19925;-55
2021/10/16 08:54:39;;;;;;;;;;;21.00;56.30;;;;;;5072507;28;19956;-54
2021/10/16 08:57:06;;;;;;;;;;;21.00;56.30;;;;;;5085395;28;20012;-53
2021/10/16 08:59:33;;;;;;;;;;;21.00;56.30;;;;;;5072461;28;19976;-53
2021/10/16 09:02:01;;;;;;;;;;;21.00;56.20;;;;;;5072497;28;20007;-54
2021/10/16 09:04:29;;;;;;;;;;;21.00;56.20;;;;;;5072067;28;19924;-52
2021/10/16 09:06:56;;;;;;;;;;;21.00;56.10;;;;;;5071282;28;20327;-55
2021/10/16 09:09:24;;;;;;;;;;;21.00;56.10;;;;;;5070954;28;20448;-55
2021/10/16 09:11:54;;;;;;;;;;;21.00;56.10;;;;;;5072214;28;20007;-56
2021/10/16 09:14:25;;;;;;;;;;;21.10;56.10;;;;;;5072287;28;20007;-57
2021/10/16 09:16:57;;;;;;;;;;;21.10;56.10;;;;;;5069387;28;19968;-56
2021/10/16 09:19:24;;;;;;;;;;;21.10;56.10;;;;;;5061310;28;19950;-55
2021/10/16 09:21:56;;;;;;;;;;;21.10;56.10;;;;;;5071992;28;19924;-52
2021/10/16 09:24:27;;;;;;;;;;;21.10;56.00;;;;;;5070690;28;19935;-56
2021/10/16 09:26:55;;;;;;;;;;;21.10;55.90;;;;;;5085964;28;20276;-57
2021/10/16 09:29:22;;;;;;;;;;;21.20;55.90;;;;;;5053455;28;19925;-57
2021/10/16 09:31:54;;;;;;;;;;;21.20;55.90;;;;;;5072115;28;19924;-54
2021/10/16 09:34:25;;;;;;;;;;;21.20;55.80;;;;;;5071083;28;19928;-52
2021/10/16 09:36:52;;;;;;;;;;;21.20;55.70;;;;;;5071750;28;20307;-55
2021/10/16 09:39:19;;;;;;;;;;;21.20;55.60;;;;;;5071005;28;20004;-53
2021/10/16 09:41:47;;;;;;;;;;;21.20;55.60;;;;;;5070490;28;19924;-55
2021/10/16 09:44:33;;;;;;;;;;;21.20;55.60;;;;;;5071597;28;19976;-54
2021/10/16 09:47:02;;;;;;;;;;;21.20;55.70;;;;;;5071620;28;20384;-58
2021/10/16 09:49:30;;;;;;;;;;;21.30;55.70;;;;;;5074009;28;20338;-56
2021/10/16 09:51:57;;;;;;;;;;;21.30;55.70;;;;;;5076147;28;20285;-54
2021/10/16 09:54:24;;;;;;;;;;;21.30;55.70;;;;;;5075474;28;20011;-53
2021/10/16 09:56:51;;;;;;;;;;;21.30;55.60;;;;;;5075770;28;20003;-53
2021/10/16 09:59:19;;;;;;;;;;;21.30;55.60;;;;;;5074870;28;19924;-56
2021/10/16 10:01:46;;;;;;;;;;;21.30;55.60;;;;;;5057566;28;19999;-55
2021/10/16 10:04:16;;;;;;;;;;;21.30;55.60;;;;;;5075952;28;19928;-54
2021/10/16 10:06:44;;;;;;;;;;;21.30;55.60;;;;;;5075956;28;20015;-54
2021/10/16 10:09:11;;;;;;;;;;;21.30;55.60;;;;;;5075761;28;19960;-56
2021/10/16 10:11:38;;;;;;;;;;;21.20;55.60;;;;;;5075466;28;20364;-53
2021/10/16 10:14:05;;;;;;;;;;;21.20;55.60;;;;;;5074188;28;19946;-54
2021/10/16 10:16:53;;;;;;;;;;;21.20;55.70;;;;;;5074102;28;19964;-53
2021/10/16 10:19:21;;;;;;;;;;;21.20;55.70;;;;;;5068284;28;19947;-56
2021/10/16 10:21:49;;;;;;;;;;;21.20;55.70;;;;;;5075551;28;19924;-54
2021/10/16 10:24:16;;;;;;;;;;;21.20;55.80;;;;;;5074889;28;20000;-57
2021/10/16 10:26:48;;;;;;;;;;;21.20;55.80;;;;;;5073981;28;20376;-56
2021/10/16 10:29:17;;;;;;;;;;;21.20;55.80;;;;;;5075071;28;19931;-54
2021/10/16 10:31:44;;;;;;;;;;;21.20;55.80;;;;;;5075665;28;19974;-57
2021/10/16 10:34:12;;;;;;;;;;;21.20;55.80;;;;;;5075219;28;19951;-54
2021/10/16 10:36:47;;;;;;;;;;;21.20;55.70;;;;;;5075204;28;19971;-54
2021/10/16 10:39:32;;;;;;;;;;;21.20;55.70;;;;;;5073941;28;20344;-57
2021/10/16 10:42:01;;;;;;;;;;;21.30;55.70;;;;;;5075192;28;19985;-58
2021/10/16 10:44:51;;;;;;;;;;;21.30;56.20;;;;;;5074118;28;19928;-54
2021/10/16 10:47:21;;;;;;;;;;;21.30;55.60;;;;;;5064423;28;19960;-55
2021/10/16 10:49:50;;;;;;;;;;;21.30;55.60;;;;;;5075234;28;20015;-58
2021/10/16 10:52:17;;;;;;;;;;;21.30;55.60;;;;;;5073465;28;19974;-54
2021/10/16 10:55:05;;;;;;;;;;;21.30;55.50;;;;;;5073360;28;19959;-57
2021/10/16 10:57:42;;;;;;;;;;;21.30;55.50;;;;;;5074801;28;20365;-56
2021/10/16 11:00:14;;;;;;;;;;;21.30;55.50;;;;;;5072856;28;20050;-56
2021/10/16 11:02:41;;;;;;;;;;;21.30;55.50;;;;;;5073625;28;19964;-54
2021/10/16 11:05:23;;;;;;;;;;;21.30;55.60;;;;;;5073246;28;20003;-55
2021/10/16 11:07:50;;;;;;;;;;;21.30;55.50;;;;;;5073365;28;19925;-57
2021/10/16 11:10:17;;;;;;;;;;;21.30;55.50;;;;;;5073175;28;19924;-53
2021/10/16 11:12:44;;;;;;;;;;;21.30;55.50;;;;;;5072995;28;19935;-55
2021/10/16 11:15:12;;;;;;;;;;;21.30;55.50;;;;;;5073446;28;20178;-55
2021/10/16 11:17:43;;;;;;;;;;;21.30;55.60;;;;;;5074351;28;19924;-57
2021/10/16 11:20:15;;;;;;;;;;;21.30;55.60;;;;;;5088907;28;20399;-56
2021/10/16 11:22:49;;;;;;;;;;;21.30;55.60;;;;;;5073606;28;20295;-52
2021/10/16 11:25:17;;;;;;;;;;;21.30;55.60;;;;;;5073888;28;19951;-56
2021/10/16 11:28:03;;;;;;;;;;;21.20;55.60;;;;;;5073588;28;19925;-57
2021/10/16 11:30:30;;;;;;;;;;;21.20;55.60;;;;;;5072373;28;19964;-57
2021/10/16 11:33:10;;;;;;;;;;;21.20;55.60;;;;;;5072797;28;19924;-57
2021/10/16 11:35:38;;;;;;;;;;;21.20;55.60;;;;;;5088413;28;19951;-55
2021/10/16 11:38:06;;;;;;;;;;;21.20;55.60;;;;;;5072968;28;20334;-55
2021/10/16 11:40:34;;;;;;;;;;;21.20;55.70;;;;;;5073959;28;19982;-55
2021/10/16 11:43:20;;;;;;;;;;;21.20;55.70;;;;;;5072620;28;20007;-55
2021/10/16 11:45:49;;;;;;;;;;;21.20;55.80;;;;;;5072643;28;19925;-57
2021/10/16 11:48:18;;;;;;;;;;;21.20;55.80;;;;;;5073595;28;20015;-56
2021/10/16 11:50:46;;;;;;;;;;;21.20;55.80;;;;;;5073561;28;20368;-56
2021/10/16 11:53:16;;;;;;;;;;;21.20;55.80;;;;;;5072370;28;19929;-56
2021/10/16 11:55:48;;;;;;;;;;;21.20;55.80;;;;;;5073515;28;19989;-55
2021/10/16 11:58:17;;;;;;;;;;;21.20;55.80;;;;;;5073752;28;19968;-53
2021/10/16 12:00:45;;;;;;;;;;;21.20;55.80;;;;;;5085185;28;20407;-54
2021/10/16 12:03:13;;;;;;;;;;;21.20;55.70;;;;;;5055475;28;19974;-53
2021/10/16 12:05:42;;;;;;;;;;;21.20;55.70;;;;;;5072420;28;19930;-55
2021/10/16 12:08:18;;;;;;;;;;;21.30;55.70;;;;;;5073498;28;20418;-54
2021/10/16 12:10:49;;;;;;;;;;;21.20;55.60;;;;;;5073112;28;19924;-53
2021/10/16 12:13:28;;;;;;;;;;;21.30;55.70;;;;;;5072875;28;20287;-51
2021/10/16 12:15:55;;;;;;;;;;;21.30;56.20;;;;;;5073506;28;19963;-55
2021/10/16 12:18:26;;;;;;;;;;;21.30;55.70;;;;;;5071618;28;20003;-57
2021/10/16 12:20:53;;;;;;;;;;;21.20;55.60;;;;;;5072285;28;20037;-56
2021/10/16 12:23:20;;;;;;;;;;;21.20;55.70;;;;;;5071755;28;19963;-53
2021/10/16 12:25:47;;;;;;;;;;;21.20;55.70;;;;;;5087348;28;20000;-54
2021/10/16 12:28:14;;;;;;;;;;;21.20;55.70;;;;;;5072813;28;19929;-53
2021/10/16 12:31:02;;;;;;;;;;;21.20;55.70;;;;;;5072805;28;19925;-58
2021/10/16 12:33:30;;;;;;;;;;;21.20;55.70;;;;;;5071979;28;20277;-56
2021/10/16 12:35:58;;;;;;;;;;;21.30;55.70;;;;;;5071513;28;20392;-54
2021/10/16 12:38:26;;;;;;;;;;;21.20;55.60;;;;;;5071844;28;19990;-53
2021/10/16 12:40:54;;;;;;;;;;;21.20;55.60;;;;;;5072770;28;19924;-57
2021/10/16 12:43:28;;;;;;;;;;;21.30;55.70;;;;;;5054159;28;19931;-53
2021/10/16 12:45:56;;;;;;;;;;;21.30;55.70;;;;;;5072644;28;19925;-56
2021/10/16 12:48:31;;;;;;;;;;;21.20;55.60;;;;;;5072278;28;20011;-54
2021/10/16 12:50:59;;;;;;;;;;;21.30;55.70;;;;;;5072523;28;20016;-57
2021/10/16 12:53:48;;;;;;;;;;;21.30;55.60;;;;;;5070933;28;19932;-53
2021/10/16 12:56:15;;;;;;;;;;;21.30;55.70;;;;;;5070808;28;20007;-55
2021/10/16 12:58:42;;;;;;;;;;;21.30;55.70;;;;;;5072313;28;19936;-55
2021/10/16 13:01:11;;;;;;;;;;;21.30;55.60;;;;;;5071576;28;20209;-56
2021/10/16 13:03:38;;;;;;;;;;;21.30;55.60;;;;;;5071179;28;19924;-54
2021/10/16 13:06:05;;;;;;;;;;;21.30;55.60;;;;;;5070986;28;20131;-54
2021/10/16 13:08:32;;;;;;;;;;;21.30;55.70;;;;;;5072098;28;19943;-55
2021/10/16 13:10:59;;;;;;;;;;;21.30;55.70;;;;;;5071715;28;19925;-57
2021/10/16 13:13:26;;;;;;;;;;;21.30;55.70;;;;;;5072307;28;20040;-57
2021/10/16 13:15:53;;;;;;;;;;;21.30;55.70;;;;;;5071572;28;20355;-56
2021/10/16 13:18:20;;;;;;;;;;;21.30;55.70;;;;;;5040563;28;20400;-54
2021/10/16 13:20:47;;;;;;;;;;;21.30;55.70;;;;;;5055752;28;20019;-55
2021/10/16 13:23:14;;;;;;;;;;;21.30;55.70;;;;;;5068715;28;19998;-55
2021/10/16 13:25:42;;;;;;;;;;;21.30;55.70;;;;;;5071837;28;19959;-54
2021/10/16 13:28:09;;;;;;;;;;;21.30;55.70;;;;;;5070995;28;19936;-54
2021/10/16 13:30:36;;;;;;;;;;;21.30;55.80;;;;;;5071965;28;19977;-53
2021/10/16 13:33:03;;;;;;;;;;;21.30;55.80;;;;;;5072231;28;19995;-57
2021/10/16 13:35:30;;;;;;;;;;;21.30;55.70;;;;;;5070576;28;19975;-56
2021/10/16 13:37:56;;;;;;;;;;;21.30;55.80;;;;;;5070937;28;20003;-54
2021/10/16 13:40:23;;;;;;;;;;;21.30;55.80;;;;;;5072172;28;19924;-55
2021/10/16 13:42:51;;;;;;;;;;;21.30;55.80;;;;;;5070911;28;19967;-56
2021/10/16 13:45:19;;;;;;;;;;;21.30;55.80;;;;;;5071144;28;20343;-55
2021/10/16 13:47:46;;;;;;;;;;;21.30;55.80;;;;;;5071587;28;19954;-57
2021/10/16 13:50:14;;;;;;;;;;;21.30;55.80;;;;;;5071598;28;19967;-57
2021/10/16 13:52:41;;;;;;;;;;;21.30;55.90;;;;;;5066471;28;19959;-55
2021/10/16 13:55:08;;;;;;;;;;;21.30;55.90;;;;;;5070413;28;19924;-55
2021/10/16 13:57:35;;;;;;;;;;;21.30;55.90;;;;;;5070555;28;19986;-54
2021/10/16 14:00:03;;;;;;;;;;;21.30;55.90;;;;;;5070528;28;20388;-54
2021/10/16 14:02:30;;;;;;;;;;;21.20;55.90;;;;;;5071763;28;20019;-52
2021/10/16 14:04:57;;;;;;;;;;;21.20;55.90;;;;;;5072000;28;20352;-54
2021/10/16 14:07:24;;;;;;;;;;;21.20;55.90;;;;;;5071894;28;19992;-54
2021/10/16 14:09:51;;;;;;;;;;;21.20;56.00;;;;;;5072060;28;19974;-53
2021/10/16 14:12:18;;;;;;;;;;;21.20;56.00;;;;;;5070277;28;19925;-54
2021/10/16 14:14:45;;;;;;;;;;;21.20;56.00;;;;;;5071702;28;20011;-56
2021/10/16 14:17:12;;;;;;;;;;;21.20;56.00;;;;;;5066659;28;20448;-54
2021/10/16 14:19:39;;;;;;;;;;;21.20;56.00;;;;;;5067785;28;20424;-56
2021/10/16 14:22:06;;;;;;;;;;;21.20;56.00;;;;;;5071407;28;20038;-54